Time;durP1;ratioP1;P1;durP2;ratioP2;P2;SDS_P1;SDS_P2;PMS_P1;PMS_P2;Temp;Humidity;BMP_temperature;BMP_pressure;BME280_temperature;BME280_humidity;BME280_pressure;Samples;Min_cycle;Max_cycle;Signal;HPM_P1;HPM_P2
2021/07/11 00:01:06;;;;;;;;;;;;;;;;;;2141121;67;1270;-66
2021/07/11 00:03:31;;;;;;;;;;;;;;;;;;2141003;67;1248;-67
2021/07/11 00:05:56;;;;;;;;;;;;;;;;;;2140924;67;1256;-67
2021/07/11 00:08:21;;;;;;;;;;;;;;;;;;2141325;67;1128;-67
2021/07/11 00:10:47;;;;;;;;;;;;;;;;;;2140927;67;1262;-67
2021/07/11 00:13:12;;;;;;;;;;;;;;;;;;2141125;59;1327;-67
2021/07/11 00:15:37;;;;;;;;;;;;;;;;;;2140872;59;1932;-67
2021/07/11 00:18:02;;;;;;;;;;;;;;;;;;2141171;67;1153;-67
2021/07/11 00:20:28;;;;;;;;;;;;;;;;;;2141080;67;1162;-67
2021/07/11 00:22:53;;;;;;;;;;;;;;;;;;2140422;67;1434;-67
2021/07/11 00:25:18;;;;;;;;;;;;;;;;;;2138866;59;2331;-67
2021/07/11 00:27:44;;;;;;;;;;;;;;;;;;2141096;66;1595;-67
2021/07/11 00:30:10;;;;;;;;;;;;;;;;;;2141942;66;1760;-70
2021/07/11 00:32:35;;;;;;;;;;;;;;;;;;2140811;67;1236;-70
2021/07/11 00:35:01;;;;;;;;;;;;;;;;;;2141558;63;2706;-66
2021/07/11 00:37:26;;;;;;;;;;;;;;;;;;2142209;66;1148;-71
2021/07/11 00:39:51;;;;;;;;;;;;;;;;;;2141711;66;1132;-70
2021/07/11 00:42:16;;;;;;;;;;;;;;;;;;2139816;59;1698;-68
2021/07/11 00:44:42;;;;;;;;;;;;;;;;;;2141286;59;1173;-67
2021/07/11 00:47:09;;;;;;;;;;;;;;;;;;2141606;59;1341;-68
2021/07/11 00:49:34;;;;;;;;;;;;;;;;;;2141557;66;1409;-67
2021/07/11 00:51:59;;;;;;;;;;;;;;;;;;2141369;66;1167;-70
2021/07/11 00:54:24;;;;;;;;;;;;;;;;;;2140481;67;1933;-69
2021/07/11 00:56:50;;;;;;;;;;;;;;;;;;2140830;67;1171;-67
2021/07/11 00:59:18;;;;;;;;;;;;;;;;;;2140045;67;1298;-68
2021/07/11 01:01:47;;;;;;;;;;;;;;;;;;2140530;59;1367;-68
2021/07/11 01:04:17;;;;;;;;;;;;;;;;;;2140618;67;1301;-67
2021/07/11 01:06:44;;;;;;;;;;;;;;;;;;2140666;67;1267;-67
2021/07/11 01:09:10;;;;;;;;;;;;;;;;;;2140860;67;1238;-68
2021/07/11 01:11:43;;;;;;;;;;;;;;;;;;2140052;59;2095;-71
2021/07/11 01:14:08;;;;;;;;;;;;;;;;;;2140398;67;1931;-67
2021/07/11 01:16:35;;;;;;;;;;;;;;;;;;2140608;59;1520;-72
2021/07/11 01:19:07;;;;;;;;;;;;;;;;;;2140744;67;1037;-70
2021/07/11 01:21:35;;;;;;;;;;;;;;;;;;2140072;67;1296;-68
2021/07/11 01:24:05;;;;;;;;;;;;;;;;;;2140202;59;1998;-68
2021/07/11 01:26:31;;;;;;;;;;;;;;;;;;2141666;59;1587;-68
2021/07/11 01:28:57;;;;;;;;;;;;;;;;;;2141866;66;1338;-69
2021/07/11 01:31:23;;;;;;;;;;;;;;;;;;2141290;66;1180;-70
2021/07/11 01:33:48;;;;;;;;;;;;;;;;;;2141777;67;1233;-71
2021/07/11 01:36:16;;;;;;;;;;;;;;;;;;2140393;67;1967;-68
2021/07/11 01:38:41;;;;;;;;;;;;;;;;;;2141435;67;1321;-68
2021/07/11 01:41:08;;;;;;;;;;;;;;;;;;2141654;67;1318;-68
2021/07/11 01:43:34;;;;;;;;;;;;;;;;;;2140733;67;1175;-68
2021/07/11 01:46:00;;;;;;;;;;;;;;;;;;2140784;59;1229;-68
2021/07/11 01:48:26;;;;;;;;;;;;;;;;;;2141459;66;1309;-70
2021/07/11 01:50:53;;;;;;;;;;;;;;;;;;2142898;66;1165;-68
2021/07/11 01:53:21;;;;;;;;;;;;;;;;;;2141784;59;2157;-68
2021/07/11 01:55:47;;;;;;;;;;;;;;;;;;2140914;59;1970;-67
2021/07/11 01:58:12;;;;;;;;;;;;;;;;;;2141534;59;1375;-69
2021/07/11 02:00:37;;;;;;;;;;;;;;;;;;2140907;59;1298;-69
2021/07/11 02:03:13;;;;;;;;;;;;;;;;;;2141540;67;1161;-69
2021/07/11 02:05:38;;;;;;;;;;;;;;;;;;2139893;67;1188;-69
2021/07/11 02:08:03;;;;;;;;;;;;;;;;;;2141468;67;1164;-69
2021/07/11 02:10:29;;;;;;;;;;;;;;;;;;2141439;59;1238;-68
2021/07/11 02:12:56;;;;;;;;;;;;;;;;;;2141083;59;1279;-69
2021/07/11 02:15:23;;;;;;;;;;;;;;;;;;2140979;59;1992;-68
2021/07/11 02:17:51;;;;;;;;;;;;;;;;;;2141129;67;1187;-69
2021/07/11 02:20:16;;;;;;;;;;;;;;;;;;2141430;67;1156;-69
2021/07/11 02:22:43;;;;;;;;;;;;;;;;;;2141246;59;1175;-69
2021/07/11 02:25:09;;;;;;;;;;;;;;;;;;2139306;67;1198;-69
2021/07/11 02:27:35;;;;;;;;;;;;;;;;;;2140156;59;1435;-69
2021/07/11 02:30:06;;;;;;;;;;;;;;;;;;2141157;59;1176;-68
2021/07/11 02:32:31;;;;;;;;;;;;;;;;;;2141327;67;1136;-69
2021/07/11 02:34:57;;;;;;;;;;;;;;;;;;2141112;67;1988;-68
2021/07/11 02:37:23;;;;;;;;;;;;;;;;;;2140883;67;1128;-68
2021/07/11 02:39:49;;;;;;;;;;;;;;;;;;2141236;67;1242;-69
2021/07/11 02:42:16;;;;;;;;;;;;;;;;;;2141046;67;1080;-68
2021/07/11 02:44:46;;;;;;;;;;;;;;;;;;2141076;67;1286;-69
2021/07/11 02:47:15;;;;;;;;;;;;;;;;;;2141190;59;1242;-69
2021/07/11 02:49:42;;;;;;;;;;;;;;;;;;2142107;66;1293;-68
2021/07/11 02:52:08;;;;;;;;;;;;;;;;;;2141597;66;1127;-67
2021/07/11 02:54:38;;;;;;;;;;;;;;;;;;2140542;67;1936;-68
2021/07/11 02:57:05;;;;;;;;;;;;;;;;;;2141124;67;2063;-69
2021/07/11 02:59:31;;;;;;;;;;;;;;;;;;2140846;67;1191;-68
2021/07/11 03:01:59;;;;;;;;;;;;;;;;;;2141090;67;1274;-68
2021/07/11 03:04:25;;;;;;;;;;;;;;;;;;2141129;67;1342;-69
2021/07/11 03:06:50;;;;;;;;;;;;;;;;;;2141119;67;1199;-69
2021/07/11 03:09:15;;;;;;;;;;;;;;;;;;2141442;67;1105;-68
2021/07/11 03:11:42;;;;;;;;;;;;;;;;;;2140617;59;1275;-69
2021/07/11 03:14:08;;;;;;;;;;;;;;;;;;2140061;67;1188;-70
2021/07/11 03:16:35;;;;;;;;;;;;;;;;;;2140349;59;1928;-69
2021/07/11 03:19:01;;;;;;;;;;;;;;;;;;2140843;67;1184;-69
2021/07/11 03:21:27;;;;;;;;;;;;;;;;;;2141215;67;1177;-68
2021/07/11 03:23:53;;;;;;;;;;;;;;;;;;2140091;59;2342;-69
2021/07/11 03:26:19;;;;;;;;;;;;;;;;;;2140610;67;1321;-69
2021/07/11 03:28:45;;;;;;;;;;;;;;;;;;2141593;59;1341;-69
2021/07/11 03:31:11;;;;;;;;;;;;;;;;;;2141363;66;1651;-69
2021/07/11 03:33:39;;;;;;;;;;;;;;;;;;2141250;66;1246;-69
2021/07/11 03:36:04;;;;;;;;;;;;;;;;;;2140742;67;1989;-69
2021/07/11 03:38:38;;;;;;;;;;;;;;;;;;2141624;66;1227;-70
2021/07/11 03:41:04;;;;;;;;;;;;;;;;;;2142155;66;1353;-69
2021/07/11 03:43:32;;;;;;;;;;;;;;;;;;2142262;66;1242;-68
2021/07/11 03:46:00;;;;;;;;;;;;;;;;;;2140861;59;1217;-68
2021/07/11 03:48:27;;;;;;;;;;;;;;;;;;2141227;59;1255;-68
2021/07/11 03:50:55;;;;;;;;;;;;;;;;;;2142244;66;1336;-70
2021/07/11 03:53:22;;;;;;;;;;;;;;;;;;2140447;67;1145;-70
2021/07/11 03:55:48;;;;;;;;;;;;;;;;;;2140263;67;1928;-68
2021/07/11 03:58:13;;;;;;;;;;;;;;;;;;2141528;66;1425;-70
2021/07/11 04:00:40;;;;;;;;;;;;;;;;;;2142047;66;1218;-69
2021/07/11 04:03:05;;;;;;;;;;;;;;;;;;2140756;67;1153;-70
2021/07/11 04:05:35;;;;;;;;;;;;;;;;;;2140787;67;1275;-69
2021/07/11 04:08:01;;;;;;;;;;;;;;;;;;2140617;67;1042;-70
2021/07/11 04:10:28;;;;;;;;;;;;;;;;;;2140877;67;1065;-68
2021/07/11 04:12:54;;;;;;;;;;;;;;;;;;2140716;59;1306;-69
2021/07/11 04:15:20;;;;;;;;;;;;;;;;;;2140134;59;2012;-70
2021/07/11 04:17:47;;;;;;;;;;;;;;;;;;2140689;67;1394;-69
2021/07/11 04:20:13;;;;;;;;;;;;;;;;;;2140665;67;1156;-69
2021/07/11 04:22:39;;;;;;;;;;;;;;;;;;2140299;59;1369;-68
2021/07/11 04:25:06;;;;;;;;;;;;;;;;;;2140638;67;1233;-68
2021/07/11 04:27:33;;;;;;;;;;;;;;;;;;2140647;67;1204;-69
2021/07/11 04:29:58;;;;;;;;;;;;;;;;;;2140892;67;1156;-69
2021/07/11 04:32:23;;;;;;;;;;;;;;;;;;2140797;67;1247;-69
2021/07/11 04:34:49;;;;;;;;;;;;;;;;;;2140640;67;1925;-68
2021/07/11 04:37:14;;;;;;;;;;;;;;;;;;2140684;67;1152;-69
2021/07/11 04:39:40;;;;;;;;;;;;;;;;;;2140575;67;1049;-68
2021/07/11 04:42:05;;;;;;;;;;;;;;;;;;2140995;67;1136;-69
2021/07/11 04:44:31;;;;;;;;;;;;;;;;;;2140443;59;1205;-70
2021/07/11 04:46:57;;;;;;;;;;;;;;;;;;2140940;66;1235;-69
2021/07/11 04:49:22;;;;;;;;;;;;;;;;;;2142913;66;1529;-69
2021/07/11 04:51:49;;;;;;;;;;;;;;;;;;2140580;66;1435;-69
2021/07/11 04:54:14;;;;;;;;;;;;;;;;;;2140763;67;1304;-70
2021/07/11 04:56:39;;;;;;;;;;;;;;;;;;2140119;59;1940;-69
2021/07/11 04:59:04;;;;;;;;;;;;;;;;;;2140731;67;1302;-68
2021/07/11 05:01:29;;;;;;;;;;;;;;;;;;2140690;67;1366;-68
2021/07/11 05:03:54;;;;;;;;;;;;;;;;;;2140598;67;1201;-69
2021/07/11 05:06:20;;;;;;;;;;;;;;;;;;2140932;67;1250;-69
2021/07/11 05:08:45;;;;;;;;;;;;;;;;;;2140377;67;1148;-69
2021/07/11 05:11:10;;;;;;;;;;;;;;;;;;2141011;67;1077;-68
2021/07/11 05:13:36;;;;;;;;;;;;;;;;;;2140446;59;1555;-68
2021/07/11 05:16:01;;;;;;;;;;;;;;;;;;2140492;59;1942;-69
2021/07/11 05:18:26;;;;;;;;;;;;;;;;;;2140783;67;1154;-69
2021/07/11 05:20:52;;;;;;;;;;;;;;;;;;2140393;67;1372;-69
2021/07/11 05:23:17;;;;;;;;;;;;;;;;;;2140467;59;1254;-70
2021/07/11 05:25:42;;;;;;;;;;;;;;;;;;2140174;67;1288;-70
2021/07/11 05:28:07;;;;;;;;;;;;;;;;;;2140451;67;1248;-69
2021/07/11 05:30:32;;;;;;;;;;;;;;;;;;2140829;67;1064;-70
2021/07/11 05:32:57;;;;;;;;;;;;;;;;;;2140375;67;1181;-69
2021/07/11 05:35:23;;;;;;;;;;;;;;;;;;2140326;67;1931;-70
2021/07/11 05:37:48;;;;;;;;;;;;;;;;;;2140366;67;1160;-69
2021/07/11 05:40:16;;;;;;;;;;;;;;;;;;2140854;67;1215;-69
2021/07/11 05:42:41;;;;;;;;;;;;;;;;;;2140732;67;1152;-69
2021/07/11 05:45:07;;;;;;;;;;;;;;;;;;2140279;59;1203;-70
2021/07/11 05:47:32;;;;;;;;;;;;;;;;;;2140857;59;1289;-68
2021/07/11 05:49:57;;;;;;;;;;;;;;;;;;2142333;67;1288;-67
2021/07/11 05:52:22;;;;;;;;;;;;;;;;;;2140677;67;1249;-69
2021/07/11 05:54:47;;;;;;;;;;;;;;;;;;2140359;67;1937;-70
2021/07/11 05:57:13;;;;;;;;;;;;;;;;;;2140139;67;1266;-70
2021/07/11 05:59:38;;;;;;;;;;;;;;;;;;2140493;67;1145;-70
2021/07/11 06:02:03;;;;;;;;;;;;;;;;;;2140671;67;1173;-70
2021/07/11 06:04:28;;;;;;;;;;;;;;;;;;2140205;67;1767;-68
2021/07/11 06:06:53;;;;;;;;;;;;;;;;;;2140887;67;1262;-69
2021/07/11 06:09:19;;;;;;;;;;;;;;;;;;2140520;67;1170;-68
2021/07/11 06:11:44;;;;;;;;;;;;;;;;;;2140563;59;1272;-69
2021/07/11 06:14:09;;;;;;;;;;;;;;;;;;2140427;67;1283;-69
2021/07/11 06:16:34;;;;;;;;;;;;;;;;;;2140386;59;1931;-69
2021/07/11 06:19:00;;;;;;;;;;;;;;;;;;2140731;67;1208;-69
2021/07/11 06:21:25;;;;;;;;;;;;;;;;;;2140505;67;1140;-68
2021/07/11 06:23:50;;;;;;;;;;;;;;;;;;2139544;59;1373;-69
2021/07/11 06:26:15;;;;;;;;;;;;;;;;;;2140563;67;1257;-68
2021/07/11 06:28:40;;;;;;;;;;;;;;;;;;2140362;67;1172;-68
2021/07/11 06:31:06;;;;;;;;;;;;;;;;;;2140660;67;1220;-70
2021/07/11 06:33:31;;;;;;;;;;;;;;;;;;2140345;67;1158;-69
2021/07/11 06:35:56;;;;;;;;;;;;;;;;;;2141085;67;1977;-69
2021/07/11 06:38:21;;;;;;;;;;;;;;;;;;2141283;67;1167;-69
2021/07/11 06:40:46;;;;;;;;;;;;;;;;;;2140939;67;1149;-69
2021/07/11 06:43:11;;;;;;;;;;;;;;;;;;2141422;67;1116;-70
2021/07/11 06:45:37;;;;;;;;;;;;;;;;;;2140841;59;1249;-69
2021/07/11 06:48:02;;;;;;;;;;;;;;;;;;2141137;59;1314;-67
2021/07/11 06:50:27;;;;;;;;;;;;;;;;;;2142440;66;1504;-68
2021/07/11 06:52:52;;;;;;;;;;;;;;;;;;2141037;67;1223;-69
2021/07/11 06:55:18;;;;;;;;;;;;;;;;;;2141002;67;1932;-69
2021/07/11 06:57:43;;;;;;;;;;;;;;;;;;2140981;67;1498;-69
2021/07/11 07:00:09;;;;;;;;;;;;;;;;;;2141358;67;1203;-69
2021/07/11 07:02:35;;;;;;;;;;;;;;;;;;2141168;67;1316;-67
2021/07/11 07:05:00;;;;;;;;;;;;;;;;;;2140950;67;1286;-70
2021/07/11 07:07:25;;;;;;;;;;;;;;;;;;2141538;67;1255;-69
2021/07/11 07:09:50;;;;;;;;;;;;;;;;;;2140903;67;1259;-69
2021/07/11 07:12:16;;;;;;;;;;;;;;;;;;2140619;59;1751;-70
2021/07/11 07:14:41;;;;;;;;;;;;;;;;;;2139949;67;1927;-68
2021/07/11 07:17:06;;;;;;;;;;;;;;;;;;2141393;59;1527;-69
2021/07/11 07:19:31;;;;;;;;;;;;;;;;;;2142021;66;996;-69
2021/07/11 07:21:57;;;;;;;;;;;;;;;;;;2140709;67;1243;-69
2021/07/11 07:24:22;;;;;;;;;;;;;;;;;;2139829;59;1397;-69
2021/07/11 07:26:47;;;;;;;;;;;;;;;;;;2142283;66;1600;-69
2021/07/11 07:29:12;;;;;;;;;;;;;;;;;;2140984;66;1438;-69
2021/07/11 07:31:37;;;;;;;;;;;;;;;;;;2140880;67;1170;-69
2021/07/11 07:34:03;;;;;;;;;;;;;;;;;;2140035;59;1774;-69
2021/07/11 07:36:28;;;;;;;;;;;;;;;;;;2140876;67;1923;-68
2021/07/11 07:38:53;;;;;;;;;;;;;;;;;;2140924;67;1443;-68
2021/07/11 07:41:18;;;;;;;;;;;;;;;;;;2140679;67;1144;-69
2021/07/11 07:43:44;;;;;;;;;;;;;;;;;;2141015;59;1154;-69
2021/07/11 07:46:09;;;;;;;;;;;;;;;;;;2140774;67;1249;-69
2021/07/11 07:48:34;;;;;;;;;;;;;;;;;;2140894;59;1316;-69
2021/07/11 07:51:00;;;;;;;;;;;;;;;;;;2141682;66;1407;-67
2021/07/11 07:53:25;;;;;;;;;;;;;;;;;;2149440;53;1869;-71
2021/07/11 07:55:50;;;;;;;;;;;;;;;;;;2148607;58;1922;-71
2021/07/11 07:58:15;;;;;;;;;;;;;;;;;;2142530;58;1984;-71
2021/07/11 08:00:41;;;;;;;;;;;;;;;;;;2147544;58;1805;-71
2021/07/11 08:03:07;;;;;;;;;;;;;;;;;;2146631;66;1444;-71
2021/07/11 08:05:32;;;;;;;;;;;;;;;;;;2143985;59;2006;-71
2021/07/11 08:07:57;;;;;;;;;;;;;;;;;;2144543;66;1435;-72
2021/07/11 08:10:22;;;;;;;;;;;;;;;;;;2144595;59;1191;-72
2021/07/11 08:12:48;;;;;;;;;;;;;;;;;;2145641;66;1394;-72
2021/07/11 08:15:17;;;;;;;;;;;;;;;;;;2146269;59;1982;-72
2021/07/11 08:17:47;;;;;;;;;;;;;;;;;;2144445;66;1226;-71
2021/07/11 08:20:13;;;;;;;;;;;;;;;;;;2145787;66;1072;-72
2021/07/11 08:22:39;;;;;;;;;;;;;;;;;;2140674;59;2048;-73
2021/07/11 08:25:05;;;;;;;;;;;;;;;;;;2143178;59;2106;-71
2021/07/11 08:27:30;;;;;;;;;;;;;;;;;;2145375;59;1491;-70
2021/07/11 08:29:55;;;;;;;;;;;;;;;;;;2145213;66;1198;-72
2021/07/11 08:32:21;;;;;;;;;;;;;;;;;;2143876;59;1855;-72
2021/07/11 08:34:46;;;;;;;;;;;;;;;;;;2144856;59;1923;-70
2021/07/11 08:37:11;;;;;;;;;;;;;;;;;;2144128;66;1230;-71
2021/07/11 08:39:36;;;;;;;;;;;;;;;;;;2145111;66;1190;-70
2021/07/11 08:42:02;;;;;;;;;;;;;;;;;;2144202;66;1426;-72
2021/07/11 08:44:27;;;;;;;;;;;;;;;;;;2146318;59;1237;-71
2021/07/11 08:46:53;;;;;;;;;;;;;;;;;;2145474;59;1302;-71
2021/07/11 08:49:18;;;;;;;;;;;;;;;;;;2144595;59;1097;-72
2021/07/11 08:51:44;;;;;;;;;;;;;;;;;;2144177;66;1485;-71
2021/07/11 08:54:11;;;;;;;;;;;;;;;;;;2145898;58;1238;-72
2021/07/11 08:56:36;;;;;;;;;;;;;;;;;;2144464;66;1951;-71
2021/07/11 08:59:01;;;;;;;;;;;;;;;;;;2146023;66;1213;-71
2021/07/11 09:01:27;;;;;;;;;;;;;;;;;;2144927;59;1779;-70
2021/07/11 09:04:02;;;;;;;;;;;;;;;;;;2144426;66;1315;-69
2021/07/11 09:06:37;;;;;;;;;;;;;;;;;;2145927;66;1253;-71
2021/07/11 09:09:03;;;;;;;;;;;;;;;;;;2146698;66;1227;-72
2021/07/11 09:11:28;;;;;;;;;;;;;;;;;;2146297;66;1400;-72
2021/07/11 09:13:53;;;;;;;;;;;;;;;;;;2143829;66;1879;-69
2021/07/11 09:16:18;;;;;;;;;;;;;;;;;;2144423;59;1979;-71
2021/07/11 09:18:43;;;;;;;;;;;;;;;;;;2144905;66;1230;-71
2021/07/11 09:21:13;;;;;;;;;;;;;;;;;;2146544;66;1152;-70
2021/07/11 09:23:39;;;;;;;;;;;;;;;;;;2143680;59;1931;-71
2021/07/11 09:26:06;;;;;;;;;;;;;;;;;;2140125;67;1252;-71
2021/07/11 09:28:33;;;;;;;;;;;;;;;;;;2144573;59;1177;-70
2021/07/11 09:31:02;;;;;;;;;;;;;;;;;;2146267;66;1167;-72
2021/07/11 09:33:28;;;;;;;;;;;;;;;;;;2146224;66;1195;-71
2021/07/11 09:36:02;;;;;;;;;;;;;;;;;;2146128;66;2031;-73
2021/07/11 09:38:28;;;;;;;;;;;;;;;;;;2145038;66;1274;-71
2021/07/11 09:40:53;;;;;;;;;;;;;;;;;;2141675;67;1426;-71
2021/07/11 09:43:18;;;;;;;;;;;;;;;;;;2145165;66;1216;-71
2021/07/11 09:45:43;;;;;;;;;;;;;;;;;;2146197;66;1145;-71
2021/07/11 09:48:12;;;;;;;;;;;;;;;;;;2144998;59;1270;-71
2021/07/11 09:50:38;;;;;;;;;;;;;;;;;;2144232;62;1169;-72
2021/07/11 09:53:06;;;;;;;;;;;;;;;;;;2142279;58;2144;-71
2021/07/11 09:55:32;;;;;;;;;;;;;;;;;;2141612;58;1925;-70
2021/07/11 09:57:59;;;;;;;;;;;;;;;;;;2143806;66;1940;-71
2021/07/11 10:00:28;;;;;;;;;;;;;;;;;;2145520;66;1227;-71
2021/07/11 10:02:55;;;;;;;;;;;;;;;;;;2144090;60;2345;-71
2021/07/11 10:05:21;;;;;;;;;;;;;;;;;;2142793;59;2824;-69
2021/07/11 10:07:46;;;;;;;;;;;;;;;;;;2143864;66;1765;-71
2021/07/11 10:10:15;;;;;;;;;;;;;;;;;;2146900;66;1282;-71
2021/07/11 10:12:41;;;;;;;;;;;;;;;;;;2145473;59;1321;-70
2021/07/11 10:15:11;;;;;;;;;;;;;;;;;;2140315;59;2087;-71
2021/07/11 10:17:37;;;;;;;;;;;;;;;;;;2146591;66;1702;-69
2021/07/11 10:20:04;;;;;;;;;;;;;;;;;;2146510;59;1289;-71
2021/07/11 10:22:39;;;;;;;;;;;;;;;;;;2143930;59;2090;-71
2021/07/11 10:25:09;;;;;;;;;;;;;;;;;;2143653;66;1314;-71
2021/07/11 10:27:34;;;;;;;;;;;;;;;;;;2144477;66;1583;-70
2021/07/11 10:30:00;;;;;;;;;;;;;;;;;;2145421;59;1318;-71
2021/07/11 10:32:26;;;;;;;;;;;;;;;;;;2145051;66;1204;-72
2021/07/11 10:34:52;;;;;;;;;;;;;;;;;;2144791;66;1929;-71
2021/07/11 10:37:22;;;;;;;;;;;;;;;;;;2145586;66;2059;-69
2021/07/11 10:39:50;;;;;;;;;;;;;;;;;;2144479;66;1146;-70
2021/07/11 10:42:25;;;;;;;;;;;;;;;;;;2145518;66;1354;-71
2021/07/11 10:45:00;;;;;;;;;;;;;;;;;;2143897;66;1967;-71
2021/07/11 10:47:25;;;;;;;;;;;;;;;;;;2144000;59;1985;-72
2021/07/11 10:49:51;;;;;;;;;;;;;;;;;;2144662;66;2122;-71
2021/07/11 10:52:21;;;;;;;;;;;;;;;;;;2144715;66;1189;-71
2021/07/11 10:54:53;;;;;;;;;;;;;;;;;;2143761;66;1964;-70
2021/07/11 10:57:26;;;;;;;;;;;;;;;;;;2145340;66;1297;-72
2021/07/11 10:59:51;;;;;;;;;;;;;;;;;;2144997;59;1796;-71
2021/07/11 11:02:16;;;;;;;;;;;;;;;;;;2145020;66;1120;-71
2021/07/11 11:04:43;;;;;;;;;;;;;;;;;;2143143;59;2193;-71
2021/07/11 11:07:12;;;;;;;;;;;;;;;;;;2143493;59;2265;-70
2021/07/11 11:09:38;;;;;;;;;;;;;;;;;;2144066;59;1883;-71
2021/07/11 11:12:16;;;;;;;;;;;;;;;;;;2144880;58;1298;-72
2021/07/11 11:14:49;;;;;;;;;;;;;;;;;;2143086;59;1927;-70
2021/07/11 11:17:24;;;;;;;;;;;;;;;;;;2145412;59;1554;-71
2021/07/11 11:19:49;;;;;;;;;;;;;;;;;;2144638;66;1217;-69
2021/07/11 11:22:16;;;;;;;;;;;;;;;;;;2146101;59;1329;-71
2021/07/11 11:24:41;;;;;;;;;;;;;;;;;;2146120;66;1354;-70
2021/07/11 11:27:07;;;;;;;;;;;;;;;;;;2146169;66;1226;-71
2021/07/11 11:29:32;;;;;;;;;;;;;;;;;;2146624;66;1264;-70
2021/07/11 11:32:00;;;;;;;;;;;;;;;;;;2142991;59;1964;-69
2021/07/11 11:34:25;;;;;;;;;;;;;;;;;;2142199;59;2234;-71
2021/07/11 11:36:51;;;;;;;;;;;;;;;;;;2144220;66;1991;-70
2021/07/11 11:39:21;;;;;;;;;;;;;;;;;;2144896;66;1190;-69
2021/07/11 11:41:47;;;;;;;;;;;;;;;;;;2144318;66;1235;-71
2021/07/11 11:44:14;;;;;;;;;;;;;;;;;;2144615;59;1821;-70
2021/07/11 11:46:40;;;;;;;;;;;;;;;;;;2144443;66;1736;-70
2021/07/11 11:49:07;;;;;;;;;;;;;;;;;;2145058;59;1862;-71
2021/07/11 11:51:32;;;;;;;;;;;;;;;;;;2145490;66;1101;-71
2021/07/11 11:53:57;;;;;;;;;;;;;;;;;;2146104;59;1596;-71
2021/07/11 11:56:23;;;;;;;;;;;;;;;;;;2144730;59;1917;-70
2021/07/11 11:58:48;;;;;;;;;;;;;;;;;;2141960;59;1903;-70
2021/07/11 12:01:15;;;;;;;;;;;;;;;;;;2144989;66;1640;-70
2021/07/11 12:03:41;;;;;;;;;;;;;;;;;;2144300;59;1993;-69
2021/07/11 12:06:07;;;;;;;;;;;;;;;;;;2143052;59;2403;-71
2021/07/11 12:08:33;;;;;;;;;;;;;;;;;;2140311;66;2329;-70
2021/07/11 12:10:59;;;;;;;;;;;;;;;;;;2139144;58;1894;-70
2021/07/11 12:13:25;;;;;;;;;;;;;;;;;;2138932;59;2338;-70
2021/07/11 12:15:59;;;;;;;;;;;;;;;;;;2139933;58;2072;-71
2021/07/11 12:18:25;;;;;;;;;;;;;;;;;;2138898;59;2085;-69
2021/07/11 12:20:52;;;;;;;;;;;;;;;;;;2138339;58;1967;-71
2021/07/11 12:23:17;;;;;;;;;;;;;;;;;;2139034;59;1870;-70
2021/07/11 12:25:44;;;;;;;;;;;;;;;;;;2141692;59;2089;-70
2021/07/11 12:28:13;;;;;;;;;;;;;;;;;;2143296;59;1818;-69
2021/07/11 12:30:41;;;;;;;;;;;;;;;;;;2144423;66;1379;-71
2021/07/11 12:33:07;;;;;;;;;;;;;;;;;;2144368;66;1242;-70
2021/07/11 12:35:41;;;;;;;;;;;;;;;;;;2143903;66;1986;-70
2021/07/11 12:38:06;;;;;;;;;;;;;;;;;;2146719;66;1196;-71
2021/07/11 12:40:32;;;;;;;;;;;;;;;;;;2145539;66;1198;-71
2021/07/11 12:43:04;;;;;;;;;;;;;;;;;;2145791;66;1280;-70
2021/07/11 12:45:29;;;;;;;;;;;;;;;;;;2145367;66;1248;-71
2021/07/11 12:47:54;;;;;;;;;;;;;;;;;;2145051;59;1398;-70
2021/07/11 12:50:33;;;;;;;;;;;;;;;;;;2144418;66;1263;-71
2021/07/11 12:52:59;;;;;;;;;;;;;;;;;;2145351;59;1276;-70
2021/07/11 12:55:24;;;;;;;;;;;;;;;;;;2142726;66;1935;-72
2021/07/11 12:57:49;;;;;;;;;;;;;;;;;;2144247;66;1412;-71
2021/07/11 13:00:14;;;;;;;;;;;;;;;;;;2146583;66;1203;-70
2021/07/11 13:02:40;;;;;;;;;;;;;;;;;;2145806;66;1357;-71
2021/07/11 13:05:08;;;;;;;;;;;;;;;;;;2144821;66;1137;-71
2021/07/11 13:07:33;;;;;;;;;;;;;;;;;;2143181;59;2319;-70
2021/07/11 13:10:00;;;;;;;;;;;;;;;;;;2143340;59;1907;-70
2021/07/11 13:12:25;;;;;;;;;;;;;;;;;;2143993;59;1279;-70
2021/07/11 13:14:51;;;;;;;;;;;;;;;;;;2143344;59;1959;-71
2021/07/11 13:17:16;;;;;;;;;;;;;;;;;;2144203;59;1608;-71
2021/07/11 13:19:41;;;;;;;;;;;;;;;;;;2142982;59;1826;-70
2021/07/11 13:22:06;;;;;;;;;;;;;;;;;;2144340;66;1211;-71
2021/07/11 13:24:31;;;;;;;;;;;;;;;;;;2144486;59;1732;-71
2021/07/11 13:26:57;;;;;;;;;;;;;;;;;;2145631;66;1199;-72
2021/07/11 13:29:22;;;;;;;;;;;;;;;;;;2145494;66;1987;-71
2021/07/11 13:31:47;;;;;;;;;;;;;;;;;;2144587;59;1344;-72
2021/07/11 13:34:12;;;;;;;;;;;;;;;;;;2144168;66;1279;-72
2021/07/11 13:36:38;;;;;;;;;;;;;;;;;;2144267;66;1977;-71
2021/07/11 13:39:04;;;;;;;;;;;;;;;;;;2144929;66;1372;-72
2021/07/11 13:41:29;;;;;;;;;;;;;;;;;;2145611;66;1065;-71
2021/07/11 13:43:54;;;;;;;;;;;;;;;;;;2144843;66;1801;-71
2021/07/11 13:46:20;;;;;;;;;;;;;;;;;;2145578;66;1367;-72
2021/07/11 13:48:45;;;;;;;;;;;;;;;;;;2144752;59;1310;-71
2021/07/11 13:51:11;;;;;;;;;;;;;;;;;;2146010;66;1405;-72
2021/07/11 13:53:36;;;;;;;;;;;;;;;;;;2146299;59;2254;-70
2021/07/11 13:56:02;;;;;;;;;;;;;;;;;;2145760;58;1915;-72
2021/07/11 13:58:27;;;;;;;;;;;;;;;;;;2144713;59;1801;-69
2021/07/11 14:00:52;;;;;;;;;;;;;;;;;;2145320;66;1275;-71
2021/07/11 14:03:17;;;;;;;;;;;;;;;;;;2145956;58;1589;-70
2021/07/11 14:05:43;;;;;;;;;;;;;;;;;;2145175;66;1288;-71
2021/07/11 14:08:08;;;;;;;;;;;;;;;;;;2142414;59;2312;-71
2021/07/11 14:10:33;;;;;;;;;;;;;;;;;;2144220;59;2199;-71
2021/07/11 14:13:00;;;;;;;;;;;;;;;;;;2140242;59;1926;-72
2021/07/11 14:15:25;;;;;;;;;;;;;;;;;;2142297;66;1926;-71
2021/07/11 14:17:51;;;;;;;;;;;;;;;;;;2144801;66;1595;-71
2021/07/11 14:20:16;;;;;;;;;;;;;;;;;;2145195;66;1177;-72
2021/07/11 14:22:42;;;;;;;;;;;;;;;;;;2145122;59;1313;-70
2021/07/11 14:25:07;;;;;;;;;;;;;;;;;;2145129;66;1254;-72
2021/07/11 14:27:33;;;;;;;;;;;;;;;;;;2142040;59;1258;-71
2021/07/11 14:29:58;;;;;;;;;;;;;;;;;;2145747;66;1155;-71
2021/07/11 14:32:23;;;;;;;;;;;;;;;;;;2145461;59;1219;-71
2021/07/11 14:34:48;;;;;;;;;;;;;;;;;;2142480;59;2050;-71
2021/07/11 14:37:13;;;;;;;;;;;;;;;;;;2145269;66;1183;-72
2021/07/11 14:39:39;;;;;;;;;;;;;;;;;;2145457;66;1361;-71
2021/07/11 14:42:04;;;;;;;;;;;;;;;;;;2145643;66;1327;-71
2021/07/11 14:44:29;;;;;;;;;;;;;;;;;;2144377;66;1331;-70
2021/07/11 14:46:54;;;;;;;;;;;;;;;;;;2144734;59;1345;-70
2021/07/11 14:49:20;;;;;;;;;;;;;;;;;;2144909;66;1350;-71
2021/07/11 14:51:45;;;;;;;;;;;;;;;;;;2145727;66;1360;-71
2021/07/11 14:54:10;;;;;;;;;;;;;;;;;;2144634;58;1255;-72
2021/07/11 14:56:36;;;;;;;;;;;;;;;;;;2144940;66;1951;-72
2021/07/11 14:59:01;;;;;;;;;;;;;;;;;;2146621;66;1187;-70
2021/07/11 15:01:26;;;;;;;;;;;;;;;;;;2145102;66;1199;-72
2021/07/11 15:03:51;;;;;;;;;;;;;;;;;;2144549;66;1285;-71
2021/07/11 15:06:17;;;;;;;;;;;;;;;;;;2144030;59;1868;-71
2021/07/11 15:08:42;;;;;;;;;;;;;;;;;;2142885;59;2566;-71
2021/07/11 15:11:07;;;;;;;;;;;;;;;;;;2143722;66;2648;-72
2021/07/11 15:13:32;;;;;;;;;;;;;;;;;;2144421;58;1825;-71
2021/07/11 15:16:00;;;;;;;;;;;;;;;;;;2144814;59;1930;-71
2021/07/11 15:18:26;;;;;;;;;;;;;;;;;;2144874;66;1218;-71
2021/07/11 15:20:51;;;;;;;;;;;;;;;;;;2145278;66;1107;-71
2021/07/11 15:23:16;;;;;;;;;;;;;;;;;;2144993;59;1433;-72
2021/07/11 15:25:41;;;;;;;;;;;;;;;;;;2145837;66;1513;-70
2021/07/11 15:28:07;;;;;;;;;;;;;;;;;;2145441;59;1170;-71
2021/07/11 15:30:32;;;;;;;;;;;;;;;;;;2144780;66;1160;-70
2021/07/11 15:32:58;;;;;;;;;;;;;;;;;;2144678;59;1207;-72
2021/07/11 15:35:23;;;;;;;;;;;;;;;;;;2144571;66;1967;-71
2021/07/11 15:37:48;;;;;;;;;;;;;;;;;;2144409;66;1278;-71
2021/07/11 15:40:14;;;;;;;;;;;;;;;;;;2145039;66;1131;-71
2021/07/11 15:42:39;;;;;;;;;;;;;;;;;;2145773;66;1269;-71
2021/07/11 15:45:06;;;;;;;;;;;;;;;;;;2143528;59;2361;-70
2021/07/11 15:47:31;;;;;;;;;;;;;;;;;;2143749;59;2284;-71
2021/07/11 15:49:56;;;;;;;;;;;;;;;;;;2140630;59;2022;-71
2021/07/11 15:52:21;;;;;;;;;;;;;;;;;;2138954;59;2143;-72
2021/07/11 15:54:46;;;;;;;;;;;;;;;;;;2138430;58;2208;-72
2021/07/11 15:57:12;;;;;;;;;;;;;;;;;;2139164;58;2336;-71
2021/07/11 15:59:37;;;;;;;;;;;;;;;;;;2139002;58;2094;-70
2021/07/11 16:02:03;;;;;;;;;;;;;;;;;;2138740;59;2332;-71
2021/07/11 16:04:29;;;;;;;;;;;;;;;;;;2142246;59;2451;-70
2021/07/11 16:06:54;;;;;;;;;;;;;;;;;;2144234;66;1173;-71
2021/07/11 16:09:19;;;;;;;;;;;;;;;;;;2142362;59;2311;-70
2021/07/11 16:11:44;;;;;;;;;;;;;;;;;;2142595;59;2353;-71
2021/07/11 16:14:09;;;;;;;;;;;;;;;;;;2143891;66;1272;-71
2021/07/11 16:16:35;;;;;;;;;;;;;;;;;;2145413;66;1923;-73
2021/07/11 16:19:00;;;;;;;;;;;;;;;;;;2143785;59;2359;-72
2021/07/11 16:21:26;;;;;;;;;;;;;;;;;;2144698;66;1317;-71
2021/07/11 16:23:51;;;;;;;;;;;;;;;;;;2146083;58;1455;-71
2021/07/11 16:26:16;;;;;;;;;;;;;;;;;;2144493;59;2076;-72
2021/07/11 16:28:41;;;;;;;;;;;;;;;;;;2144505;66;1328;-72
2021/07/11 16:31:07;;;;;;;;;;;;;;;;;;2145723;66;1170;-73
2021/07/11 16:33:32;;;;;;;;;;;;;;;;;;2146947;66;1191;-72
2021/07/11 16:35:57;;;;;;;;;;;;;;;;;;2146218;66;1928;-72
2021/07/11 16:38:22;;;;;;;;;;;;;;;;;;2146081;66;1137;-71
2021/07/11 16:40:47;;;;;;;;;;;;;;;;;;2145891;66;1454;-72
2021/07/11 16:43:13;;;;;;;;;;;;;;;;;;2145010;59;2407;-70
2021/07/11 16:45:38;;;;;;;;;;;;;;;;;;2143645;59;1858;-72
2021/07/11 16:48:03;;;;;;;;;;;;;;;;;;2143631;59;1962;-70
2021/07/11 16:50:28;;;;;;;;;;;;;;;;;;2143415;59;2306;-72
2021/07/11 16:52:56;;;;;;;;;;;;;;;;;;2145076;59;1244;-72
2021/07/11 16:55:21;;;;;;;;;;;;;;;;;;2143508;66;1990;-71